sensor_id;sensor_type;location;lat;lon;timestamp;pressure;altitude;pressure_sealevel;temperature;humidity
46954;BME280;32707;43.886;12.874;2022-11-20T00:02:00;100448.66;;;10.75;100.00
46954;BME280;32707;43.886;12.874;2022-11-20T00:04:25;100458.72;;;10.76;100.00
46954;BME280;32707;43.886;12.874;2022-11-20T00:06:51;100459.38;;;10.73;100.00
46954;BME280;32707;43.886;12.874;2022-11-20T00:09:16;100451.31;;;10.72;100.00
46954;BME280;32707;43.886;12.874;2022-11-20T00:11:42;100452.16;;;10.72;100.00
46954;BME280;32707;43.886;12.874;2022-11-20T00:14:12;100446.72;;;10.67;100.00
46954;BME280;32707;43.886;12.874;2022-11-20T00:16:38;100454.78;;;10.60;100.00
46954;BME280;32707;43.886;12.874;2022-11-20T00:19:03;100473.88;;;10.58;100.00
46954;BME280;32707;43.886;12.874;2022-11-20T00:21:29;100458.56;;;10.55;100.00
46954;BME280;32707;43.886;12.874;2022-11-20T00:23:56;100469.44;;;10.57;100.00
46954;BME280;32707;43.886;12.874;2022-11-20T00:26:23;100464.66;;;10.57;100.00
46954;BME280;32707;43.886;12.874;2022-11-20T00:28:53;100473.06;;;10.57;100.00
46954;BME280;32707;43.886;12.874;2022-11-20T00:31:19;100474.03;;;10.53;100.00
46954;BME280;32707;43.886;12.874;2022-11-20T00:33:45;100475.03;;;10.48;100.00
46954;BME280;32707;43.886;12.874;2022-11-20T00:36:14;100481.13;;;10.50;100.00
46954;BME280;32707;43.886;12.874;2022-11-20T00:38:40;100487.03;;;10.48;100.00
46954;BME280;32707;43.886;12.874;2022-11-20T00:41:09;100479.97;;;10.51;100.00
46954;BME280;32707;43.886;12.874;2022-11-20T00:43:35;100483.91;;;10.50;100.00
46954;BME280;32707;43.886;12.874;2022-11-20T00:46:09;100484.56;;;10.56;100.00
46954;BME280;32707;43.886;12.874;2022-11-20T00:48:34;100481.94;;;10.59;100.00
46954;BME280;32707;43.886;12.874;2022-11-20T00:51:00;100478.47;;;10.54;100.00
46954;BME280;32707;43.886;12.874;2022-11-20T00:53:26;100484.72;;;10.50;100.00
46954;BME280;32707;43.886;12.874;2022-11-20T00:56:02;100499.56;;;10.51;100.00
46954;BME280;32707;43.886;12.874;2022-11-20T00:58:36;100509.56;;;10.52;100.00
46954;BME280;32707;43.886;12.874;2022-11-20T01:01:12;100514.34;;;10.52;100.00
46954;BME280;32707;43.886;12.874;2022-11-20T01:03:40;100514.19;;;10.48;100.00
46954;BME280;32707;43.886;12.874;2022-11-20T01:08:36;100506.28;;;10.50;100.00
46954;BME280;32707;43.886;12.874;2022-11-20T01:11:07;100495.25;;;10.45;100.00
46954;BME280;32707;43.886;12.874;2022-11-20T01:13:33;100502.97;;;10.39;100.00
46954;BME280;32707;43.886;12.874;2022-11-20T01:16:33;100503.31;;;10.38;100.00
46954;BME280;32707;43.886;12.874;2022-11-20T01:19:01;100519.28;;;10.37;100.00
46954;BME280;32707;43.886;12.874;2022-11-20T01:21:38;100516.66;;;10.41;100.00
46954;BME280;32707;43.886;12.874;2022-11-20T01:24:05;100518.78;;;10.44;100.00
46954;BME280;32707;43.886;12.874;2022-11-20T01:26:36;100519.63;;;10.44;100.00
46954;BME280;32707;43.886;12.874;2022-11-20T01:29:02;100516.81;;;10.44;100.00
46954;BME280;32707;43.886;12.874;2022-11-20T01:31:34;100520.91;;;10.47;100.00
46954;BME280;32707;43.886;12.874;2022-11-20T01:34:05;100519.28;;;10.46;100.00
46954;BME280;32707;43.886;12.874;2022-11-20T01:36:33;100521.75;;;10.47;100.00
46954;BME280;32707;43.886;12.874;2022-11-20T01:39:01;100518.13;;;10.47;100.00
46954;BME280;32707;43.886;12.874;2022-11-20T01:41:29;100517.31;;;10.46;100.00
46954;BME280;32707;43.886;12.874;2022-11-20T01:44:15;100524.03;;;10.45;100.00
46954;BME280;32707;43.886;12.874;2022-11-20T01:46:52;100519.13;;;10.42;100.00
46954;BME280;32707;43.886;12.874;2022-11-20T01:51:56;100520.09;;;10.46;100.00
46954;BME280;32707;43.886;12.874;2022-11-20T01:54:31;100526.50;;;10.47;100.00
46954;BME280;32707;43.886;12.874;2022-11-20T01:57:00;100527.69;;;10.46;100.00
46954;BME280;32707;43.886;12.874;2022-11-20T01:59:28;100530.16;;;10.47;100.00
46954;BME280;32707;43.886;12.874;2022-11-20T02:01:54;100524.88;;;10.46;100.00
46954;BME280;32707;43.886;12.874;2022-11-20T02:04:20;100526.53;;;10.38;100.00
46954;BME280;32707;43.886;12.874;2022-11-20T02:06:53;100520.09;;;10.38;100.00
46954;BME280;32707;43.886;12.874;2022-11-20T02:09:22;100522.56;;;10.30;100.00
46954;BME280;32707;43.886;12.874;2022-11-20T02:11:47;100520.88;;;10.29;100.00
46954;BME280;32707;43.886;12.874;2022-11-20T02:14:13;100514.78;;;10.27;100.00
46954;BME280;32707;43.886;12.874;2022-11-20T02:16:44;100519.56;;;10.27;100.00
46954;BME280;32707;43.886;12.874;2022-11-20T02:19:30;100515.91;;;10.26;100.00
46954;BME280;32707;43.886;12.874;2022-11-20T02:24:21;100525.16;;;10.27;100.00
46954;BME280;32707;43.886;12.874;2022-11-20T02:27:23;100518.72;;;10.26;100.00
46954;BME280;32707;43.886;12.874;2022-11-20T02:29:53;100525.66;;;10.29;100.00
46954;BME280;32707;43.886;12.874;2022-11-20T02:32:21;100525.16;;;10.27;100.00
46954;BME280;32707;43.886;12.874;2022-11-20T02:34:47;100511.00;;;10.23;100.00
46954;BME280;32707;43.886;12.874;2022-11-20T02:37:13;100534.81;;;10.21;100.00
46954;BME280;32707;43.886;12.874;2022-11-20T02:39:40;100534.81;;;10.21;100.00
46954;BME280;32707;43.886;12.874;2022-11-20T02:42:05;100537.44;;;10.17;100.00
46954;BME280;32707;43.886;12.874;2022-11-20T02:44:31;100530.22;;;10.16;100.00
46954;BME280;32707;43.886;12.874;2022-11-20T02:46:59;100525.44;;;10.17;100.00
46954;BME280;32707;43.886;12.874;2022-11-20T02:49:25;100539.91;;;10.19;100.00
46954;BME280;32707;43.886;12.874;2022-11-20T02:51:50;100525.94;;;10.19;100.00
46954;BME280;32707;43.886;12.874;2022-11-20T02:54:16;100539.91;;;10.19;100.00
46954;BME280;32707;43.886;12.874;2022-11-20T02:56:41;100534.00;;;10.20;100.00
46954;BME280;32707;43.886;12.874;2022-11-20T02:59:07;100538.78;;;10.20;100.00
46954;BME280;32707;43.886;12.874;2022-11-20T03:01:33;100526.78;;;10.19;100.00
46954;BME280;32707;43.886;12.874;2022-11-20T03:03:58;100534.81;;;10.21;100.00
46954;BME280;32707;43.886;12.874;2022-11-20T03:06:24;100521.84;;;10.16;100.00
46954;BME280;32707;43.886;12.874;2022-11-20T03:08:49;100538.59;;;10.16;100.00
46954;BME280;32707;43.886;12.874;2022-11-20T03:11:15;100523.81;;;10.16;100.00
46954;BME280;32707;43.886;12.874;2022-11-20T03:13:40;100538.59;;;10.16;100.00
46954;BME280;32707;43.886;12.874;2022-11-20T03:16:14;100531.72;;;10.14;100.00
46954;BME280;32707;43.886;12.874;2022-11-20T03:18:41;100530.84;;;10.13;100.00
46954;BME280;32707;43.886;12.874;2022-11-20T03:21:08;100541.72;;;10.15;100.00
46954;BME280;32707;43.886;12.874;2022-11-20T03:23:34;100544.19;;;10.16;100.00
46954;BME280;32707;43.886;12.874;2022-11-20T03:26:20;100542.72;;;10.19;100.00
46954;BME280;32707;43.886;12.874;2022-11-20T03:28:49;100540.75;;;10.19;100.00
46954;BME280;32707;43.886;12.874;2022-11-20T03:31:16;100549.47;;;10.18;100.00
46954;BME280;32707;43.886;12.874;2022-11-20T03:33:42;100546.69;;;10.18;100.00
46954;BME280;32707;43.886;12.874;2022-11-20T03:36:11;100556.38;;;10.20;100.00
46954;BME280;32707;43.886;12.874;2022-11-20T03:38:37;100562.78;;;10.21;100.00
46954;BME280;32707;43.886;12.874;2022-11-20T03:41:08;100573.16;;;10.20;100.00
46954;BME280;32707;43.886;12.874;2022-11-20T03:43:34;100577.13;;;10.19;100.00
46954;BME280;32707;43.886;12.874;2022-11-20T03:45:59;100575.78;;;10.17;100.00
46954;BME280;32707;43.886;12.874;2022-11-20T03:48:25;100580.88;;;10.15;100.00
46954;BME280;32707;43.886;12.874;2022-11-20T03:50:52;100587.63;;;10.14;100.00
46954;BME280;32707;43.886;12.874;2022-11-20T03:53:18;100584.31;;;10.11;100.00
46954;BME280;32707;43.886;12.874;2022-11-20T03:55:43;100590.25;;;10.10;100.00
46954;BME280;32707;43.886;12.874;2022-11-20T03:58:09;100585.47;;;10.10;100.00
46954;BME280;32707;43.886;12.874;2022-11-20T04:00:35;100586.59;;;10.09;100.00
46954;BME280;32707;43.886;12.874;2022-11-20T04:03:01;100587.75;;;10.08;100.00
46954;BME280;32707;43.886;12.874;2022-11-20T04:05:27;100595.66;;;10.06;100.00
46954;BME280;32707;43.886;12.874;2022-11-20T04:07:53;100579.38;;;10.08;100.00
46954;BME280;32707;43.886;12.874;2022-11-20T04:10:18;100579.19;;;10.05;100.00
46954;BME280;32707;43.886;12.874;2022-11-20T04:12:44;100578.19;;;10.01;100.00
46954;BME280;32707;43.886;12.874;2022-11-20T04:15:09;100581.00;;;10.01;100.00
46954;BME280;32707;43.886;12.874;2022-11-20T04:17:35;100572.75;;;9.96;100.00
46954;BME280;32707;43.886;12.874;2022-11-20T04:20:01;100578.97;;;9.92;100.00
46954;BME280;32707;43.886;12.874;2022-11-20T04:22:27;100573.19;;;9.89;100.00
46954;BME280;32707;43.886;12.874;2022-11-20T04:24:52;100588.00;;;9.89;100.00
46954;BME280;32707;43.886;12.874;2022-11-20T04:27:17;100580.63;;;9.93;100.00
46954;BME280;32707;43.886;12.874;2022-11-20T04:29:43;100585.72;;;9.91;100.00
46954;BME280;32707;43.886;12.874;2022-11-20T04:32:08;100575.50;;;9.87;100.00
46954;BME280;32707;43.886;12.874;2022-11-20T04:34:34;100579.75;;;9.84;100.00
46954;BME280;32707;43.886;12.874;2022-11-20T04:37:00;100583.38;;;9.85;100.00
46954;BME280;32707;43.886;12.874;2022-11-20T04:39:25;100596.34;;;9.81;100.00
46954;BME280;32707;43.886;12.874;2022-11-20T04:41:53;100602.25;;;9.79;100.00
46954;BME280;32707;43.886;12.874;2022-11-20T04:44:39;100600.63;;;9.78;100.00
46954;BME280;32707;43.886;12.874;2022-11-20T04:47:04;100594.53;;;9.76;100.00
46954;BME280;32707;43.886;12.874;2022-11-20T04:49:30;100592.06;;;9.75;100.00
46954;BME280;32707;43.886;12.874;2022-11-20T04:51:57;100601.25;;;9.75;100.00
46954;BME280;32707;43.886;12.874;2022-11-20T04:54:22;100605.19;;;9.74;100.00
46954;BME280;32707;43.886;12.874;2022-11-20T04:56:48;100609.94;;;9.73;100.00
46954;BME280;32707;43.886;12.874;2022-11-20T04:59:13;100592.38;;;9.73;100.00
46954;BME280;32707;43.886;12.874;2022-11-20T05:01:39;100593.19;;;9.73;100.00
46954;BME280;32707;43.886;12.874;2022-11-20T05:04:04;100605.19;;;9.74;100.00
46954;BME280;32707;43.886;12.874;2022-11-20T05:06:30;100604.03;;;9.75;100.00
46954;BME280;32707;43.886;12.874;2022-11-20T05:08:56;100606.34;;;9.73;100.00
46954;BME280;32707;43.886;12.874;2022-11-20T05:11:21;100609.94;;;9.73;100.00
46954;BME280;32707;43.886;12.874;2022-11-20T05:13:48;100614.22;;;9.71;100.00
46954;BME280;32707;43.886;12.874;2022-11-20T05:16:16;100618.13;;;9.70;100.00
46954;BME280;32707;43.886;12.874;2022-11-20T05:18:42;100620.63;;;9.71;100.00
46954;BME280;32707;43.886;12.874;2022-11-20T05:21:08;100626.72;;;9.73;100.00
46954;BME280;32707;43.886;12.874;2022-11-20T05:23:34;100633.47;;;9.72;100.00
46954;BME280;32707;43.886;12.874;2022-11-20T05:26:01;100630.00;;;9.76;100.00
46954;BME280;32707;43.886;12.874;2022-11-20T05:28:28;100642.34;;;9.75;100.00
46954;BME280;32707;43.886;12.874;2022-11-20T05:30:54;100645.94;;;9.75;100.00
46954;BME280;32707;43.886;12.874;2022-11-20T05:33:20;100640.38;;;9.75;100.00
46954;BME280;32707;43.886;12.874;2022-11-20T05:35:46;100633.13;;;9.74;100.00
46954;BME280;32707;43.886;12.874;2022-11-20T05:38:11;100639.03;;;9.72;100.00
46954;BME280;32707;43.886;12.874;2022-11-20T05:40:37;100632.09;;;9.70;100.00
46954;BME280;32707;43.886;12.874;2022-11-20T05:43:05;100645.75;;;9.71;100.00
46954;BME280;32707;43.886;12.874;2022-11-20T05:45:30;100647.56;;;9.67;100.00
46954;BME280;32707;43.886;12.874;2022-11-20T05:47:59;100645.06;;;9.66;100.00
46954;BME280;32707;43.886;12.874;2022-11-20T05:50:26;100647.06;;;9.65;100.00
46954;BME280;32707;43.886;12.874;2022-11-20T05:52:52;100646.72;;;9.67;100.00
46954;BME280;32707;43.886;12.874;2022-11-20T05:55:17;100645.06;;;9.66;100.00
46954;BME280;32707;43.886;12.874;2022-11-20T05:57:42;100648.69;;;9.66;100.00
46954;BME280;32707;43.886;12.874;2022-11-20T06:00:11;100648.88;;;9.70;100.00
46954;BME280;32707;43.886;12.874;2022-11-20T06:02:36;100655.31;;;9.70;100.00
46954;BME280;32707;43.886;12.874;2022-11-20T06:05:02;100667.59;;;9.69;100.00
46954;BME280;32707;43.886;12.874;2022-11-20T06:07:27;100660.03;;;9.70;100.00
46954;BME280;32707;43.886;12.874;2022-11-20T06:09:53;100662.84;;;9.70;100.00
46954;BME280;32707;43.886;12.874;2022-11-20T06:12:19;100670.72;;;9.68;100.00
46954;BME280;32707;43.886;12.874;2022-11-20T06:14:44;100672.38;;;9.69;100.00
46954;BME280;32707;43.886;12.874;2022-11-20T06:17:09;100675.19;;;9.69;100.00
46954;BME280;32707;43.886;12.874;2022-11-20T06:19:35;100679.91;;;9.68;100.00
46954;BME280;32707;43.886;12.874;2022-11-20T06:22:00;100681.06;;;9.67;100.00
46954;BME280;32707;43.886;12.874;2022-11-20T06:24:26;100680.75;;;9.69;100.00
46954;BME280;32707;43.886;12.874;2022-11-20T06:26:51;100680.75;;;9.69;100.00
46954;BME280;32707;43.886;12.874;2022-11-20T06:29:17;100689.16;;;9.69;100.00
46954;BME280;32707;43.886;12.874;2022-11-20T06:31:42;100697.53;;;9.69;100.00
46954;BME280;32707;43.886;12.874;2022-11-20T06:34:10;100700.00;;;9.70;100.00
46954;BME280;32707;43.886;12.874;2022-11-20T06:36:36;100708.03;;;9.72;100.00
46954;BME280;32707;43.886;12.874;2022-11-20T06:39:06;100711.50;;;9.69;100.00
46954;BME280;32707;43.886;12.874;2022-11-20T06:41:31;100726.59;;;9.68;100.00
46954;BME280;32707;43.886;12.874;2022-11-20T06:43:57;100723.81;;;9.68;100.00
46954;BME280;32707;43.886;12.874;2022-11-20T06:46:22;100736.94;;;9.67;100.00
46954;BME280;32707;43.886;12.874;2022-11-20T06:48:49;100726.91;;;9.66;100.00
46954;BME280;32707;43.886;12.874;2022-11-20T06:51:14;100732.19;;;9.68;100.00
46954;BME280;32707;43.886;12.874;2022-11-20T06:53:40;100739.75;;;9.67;100.00
46954;BME280;32707;43.886;12.874;2022-11-20T06:56:06;100739.94;;;9.71;100.00
46954;BME280;32707;43.886;12.874;2022-11-20T06:58:35;100750.47;;;9.74;100.00
46954;BME280;32707;43.886;12.874;2022-11-20T07:01:08;100753.59;;;9.72;100.00
46954;BME280;32707;43.886;12.874;2022-11-20T07:03:35;100744.16;;;9.68;100.00
46954;BME280;32707;43.886;12.874;2022-11-20T07:06:01;100753.09;;;9.70;100.00
46954;BME280;32707;43.886;12.874;2022-11-20T07:08:27;100759.38;;;9.76;100.00
46954;BME280;32707;43.886;12.874;2022-11-20T07:10:57;100761.53;;;9.79;100.00
46954;BME280;32707;43.886;12.874;2022-11-20T07:13:27;100768.97;;;9.84;100.00
46954;BME280;32707;43.886;12.874;2022-11-20T07:15:53;100770.09;;;9.83;100.00
46954;BME280;32707;43.886;12.874;2022-11-20T07:18:18;100765.13;;;9.80;100.00
46954;BME280;32707;43.886;12.874;2022-11-20T07:20:44;100765.13;;;9.80;100.00
46954;BME280;32707;43.886;12.874;2022-11-20T07:23:09;100778.28;;;9.79;100.00
46954;BME280;32707;43.886;12.874;2022-11-20T07:25:35;100782.56;;;9.77;100.00
46954;BME280;32707;43.886;12.874;2022-11-20T07:28:01;100787.84;;;9.78;100.00
46954;BME280;32707;43.886;12.874;2022-11-20T07:30:27;100785.84;;;9.79;100.00
46954;BME280;32707;43.886;12.874;2022-11-20T07:32:54;100793.63;;;9.82;100.00
46954;BME280;32707;43.886;12.874;2022-11-20T07:35:20;100793.16;;;9.88;100.00
46954;BME280;32707;43.886;12.874;2022-11-20T07:37:46;100801.22;;;9.90;100.00
46954;BME280;32707;43.886;12.874;2022-11-20T07:40:16;100806.19;;;9.93;100.00
46954;BME280;32707;43.886;12.874;2022-11-20T07:42:52;100813.13;;;9.96;100.00
46954;BME280;32707;43.886;12.874;2022-11-20T07:45:19;100805.75;;;10.00;100.00
46954;BME280;32707;43.886;12.874;2022-11-20T07:47:45;100809.44;;;10.09;100.00
46954;BME280;32707;43.886;12.874;2022-11-20T07:50:11;100812.13;;;10.23;100.00
46954;BME280;32707;43.886;12.874;2022-11-20T07:52:37;100825.69;;;10.29;100.00
46954;BME280;32707;43.886;12.874;2022-11-20T07:55:03;100819.91;;;10.26;100.00
46954;BME280;32707;43.886;12.874;2022-11-20T07:57:28;100818.91;;;10.22;100.00
46954;BME280;32707;43.886;12.874;2022-11-20T07:59:54;100827.91;;;10.19;100.00
46954;BME280;32707;43.886;12.874;2022-11-20T08:02:19;100826.41;;;10.12;100.00
46954;BME280;32707;43.886;12.874;2022-11-20T08:04:44;100833.13;;;10.11;100.00
46954;BME280;32707;43.886;12.874;2022-11-20T08:07:10;100839.56;;;10.12;100.00
46954;BME280;32707;43.886;12.874;2022-11-20T08:09:35;100851.88;;;10.11;100.00
46954;BME280;32707;43.886;12.874;2022-11-20T08:12:01;100854.84;;;10.15;100.00
46954;BME280;32707;43.886;12.874;2022-11-20T08:14:44;100852.25;;;10.18;100.00
46954;BME280;32707;43.886;12.874;2022-11-20T08:17:10;100858.34;;;10.20;100.00
46954;BME280;32707;43.886;12.874;2022-11-20T08:19:35;100850.59;;;10.17;100.00
46954;BME280;32707;43.886;12.874;2022-11-20T08:22:01;100849.47;;;10.18;100.00
46954;BME280;32707;43.886;12.874;2022-11-20T08:24:26;100848.00;;;10.21;100.00
46954;BME280;32707;43.886;12.874;2022-11-20T08:26:52;100850.28;;;10.19;100.00
46954;BME280;32707;43.886;12.874;2022-11-20T08:29:18;100854.84;;;10.15;100.00
46954;BME280;32707;43.886;12.874;2022-11-20T08:31:43;100869.66;;;10.15;100.00
46954;BME280;32707;43.886;12.874;2022-11-20T08:34:08;100866.84;;;10.15;100.00
46954;BME280;32707;43.886;12.874;2022-11-20T08:36:34;100871.31;;;10.16;100.00
46954;BME280;32707;43.886;12.874;2022-11-20T08:39:00;100871.00;;;10.18;100.00
46954;BME280;32707;43.886;12.874;2022-11-20T08:41:26;100871.00;;;10.18;100.00
46954;BME280;32707;43.886;12.874;2022-11-20T08:43:57;100863.75;;;10.17;100.00
46954;BME280;32707;43.886;12.874;2022-11-20T08:46:30;100868.72;;;10.20;100.00
46954;BME280;32707;43.886;12.874;2022-11-20T08:48:58;100868.47;;;10.30;100.00
46954;BME280;32707;43.886;12.874;2022-11-20T08:51:23;100875.44;;;10.33;100.00
46954;BME280;32707;43.886;12.874;2022-11-20T08:53:48;100871.66;;;10.37;100.00
46954;BME280;32707;43.886;12.874;2022-11-20T08:56:14;100875.97;;;10.43;100.00
46954;BME280;32707;43.886;12.874;2022-11-20T08:58:40;100877.84;;;10.48;100.00
46954;BME280;32707;43.886;12.874;2022-11-20T09:01:06;100882.28;;;10.49;100.00
46954;BME280;32707;43.886;12.874;2022-11-20T09:03:31;100887.88;;;10.49;100.00
46954;BME280;32707;43.886;12.874;2022-11-20T09:06:02;100889.13;;;10.65;100.00
46954;BME280;32707;43.886;12.874;2022-11-20T09:08:29;100891.44;;;10.63;100.00
46954;BME280;32707;43.886;12.874;2022-11-20T09:10:56;100890.59;;;10.63;100.00
46954;BME280;32707;43.886;12.874;2022-11-20T09:13:23;100900.50;;;10.69;100.00
46954;BME280;32707;43.886;12.874;2022-11-20T09:18:20;100900.59;;;10.78;100.00
46954;BME280;32707;43.886;12.874;2022-11-20T09:20:46;100919.50;;;10.81;100.00
46954;BME280;32707;43.886;12.874;2022-11-20T09:23:11;100911.19;;;10.89;100.00
46954;BME280;32707;43.886;12.874;2022-11-20T09:25:36;100920.75;;;10.97;100.00
46954;BME280;32707;43.886;12.874;2022-11-20T09:28:02;100926.91;;;11.08;100.00
46954;BME280;32707;43.886;12.874;2022-11-20T09:30:27;100931.41;;;11.18;100.00
46954;BME280;32707;43.886;12.874;2022-11-20T09:32:53;100924.34;;;11.20;100.00
46954;BME280;32707;43.886;12.874;2022-11-20T09:35:18;100926.97;;;11.17;100.00
46954;BME280;32707;43.886;12.874;2022-11-20T09:37:45;100932.91;;;11.15;100.00
46954;BME280;32707;43.886;12.874;2022-11-20T09:40:20;100938.31;;;11.12;100.00
46954;BME280;32707;43.886;12.874;2022-11-20T09:43:26;100929.44;;;11.18;100.00
46954;BME280;32707;43.886;12.874;2022-11-20T09:48:40;100922.56;;;11.33;100.00
46954;BME280;32707;43.886;12.874;2022-11-20T09:51:22;100924.88;;;11.31;100.00
46954;BME280;32707;43.886;12.874;2022-11-20T09:56:37;100922.56;;;11.82;100.00
46954;BME280;32707;43.886;12.874;2022-11-20T09:59:06;100918.59;;;11.74;100.00
46954;BME280;32707;43.886;12.874;2022-11-20T10:01:35;100913.63;;;11.62;100.00
46954;BME280;32707;43.886;12.874;2022-11-20T10:04:10;100906.16;;;11.49;100.00
46954;BME280;32707;43.886;12.874;2022-11-20T10:07:19;100913.25;;;11.55;100.00
46954;BME280;32707;43.886;12.874;2022-11-20T10:09:53;100907.72;;;11.81;100.00
46954;BME280;32707;43.886;12.874;2022-11-20T10:18:16;100899.13;;;13.38;100.00
46954;BME280;32707;43.886;12.874;2022-11-20T10:29:06;100891.84;;;13.67;100.00
46954;BME280;32707;43.886;12.874;2022-11-20T10:31:36;100890.78;;;14.02;100.00
46954;BME280;32707;43.886;12.874;2022-11-20T10:34:28;100887.09;;;14.10;100.00
46954;BME280;32707;43.886;12.874;2022-11-20T10:37:08;100879.06;;;13.99;100.00
46954;BME280;32707;43.886;12.874;2022-11-20T10:39:49;100880.63;;;14.09;100.00
46954;BME280;32707;43.886;12.874;2022-11-20T10:42:26;100871.22;;;14.05;100.00
46954;BME280;32707;43.886;12.874;2022-11-20T10:45:01;100878.22;;;13.78;100.00
46954;BME280;32707;43.886;12.874;2022-11-20T10:47:30;100884.25;;;13.68;100.00
46954;BME280;32707;43.886;12.874;2022-11-20T10:50:01;100873.25;;;13.54;100.00
46954;BME280;32707;43.886;12.874;2022-11-20T11:00:34;100882.28;;;12.82;100.00
46954;BME280;32707;43.886;12.874;2022-11-20T11:02:59;100868.75;;;12.76;100.00
46954;BME280;32707;43.886;12.874;2022-11-20T11:05:45;100864.66;;;12.64;100.00
46954;BME280;32707;43.886;12.874;2022-11-20T11:08:17;100856.44;;;12.59;100.00
46954;BME280;32707;43.886;12.874;2022-11-20T11:11:10;100854.28;;;12.56;100.00
46954;BME280;32707;43.886;12.874;2022-11-20T11:13:40;100866.50;;;12.52;100.00
46954;BME280;32707;43.886;12.874;2022-11-20T11:16:23;100860.06;;;12.51;100.00
46954;BME280;32707;43.886;12.874;2022-11-20T11:18:49;100863.34;;;12.53;100.00
46954;BME280;32707;43.886;12.874;2022-11-20T11:21:21;100862.38;;;12.58;100.00
46954;BME280;32707;43.886;12.874;2022-11-20T11:23:58;100857.84;;;12.74;100.00
46954;BME280;32707;43.886;12.874;2022-11-20T11:26:24;100863.09;;;12.93;100.00
46954;BME280;32707;43.886;12.874;2022-11-20T11:31:27;100852.16;;;13.69;100.00
46954;BME280;32707;43.886;12.874;2022-11-20T11:34:16;100855.59;;;13.95;100.00
46954;BME280;32707;43.886;12.874;2022-11-20T11:36:48;100840.91;;;14.11;100.00
46954;BME280;32707;43.886;12.874;2022-11-20T11:39:18;100841.50;;;14.16;100.00
46954;BME280;32707;43.886;12.874;2022-11-20T11:41:45;100842.91;;;14.10;100.00
46954;BME280;32707;43.886;12.874;2022-11-20T11:44:29;100837.91;;;13.95;100.00
46954;BME280;32707;43.886;12.874;2022-11-20T11:47:23;100829.22;;;14.00;100.00
46954;BME280;32707;43.886;12.874;2022-11-20T11:52:29;100833.72;;;14.01;100.00
46954;BME280;32707;43.886;12.874;2022-11-20T11:54:58;100832.59;;;14.14;100.00
46954;BME280;32707;43.886;12.874;2022-11-20T12:00:10;100832.56;;;14.35;100.00
46954;BME280;32707;43.886;12.874;2022-11-20T12:05:21;100823.47;;;14.96;100.00
46954;BME280;32707;43.886;12.874;2022-11-20T12:13:03;100814.06;;;14.80;100.00
46954;BME280;32707;43.886;12.874;2022-11-20T12:15:32;100814.25;;;14.63;100.00
46954;BME280;32707;43.886;12.874;2022-11-20T12:17:58;100823.09;;;14.40;100.00
46954;BME280;32707;43.886;12.874;2022-11-20T12:20:28;100818.53;;;14.14;100.00
46954;BME280;32707;43.886;12.874;2022-11-20T12:23:05;100813.13;;;13.88;100.00
46954;BME280;32707;43.886;12.874;2022-11-20T12:25:36;100810.78;;;13.69;100.00
46954;BME280;32707;43.886;12.874;2022-11-20T12:28:22;100815.19;;;13.58;100.00
46954;BME280;32707;43.886;12.874;2022-11-20T12:34:04;100812.91;;;13.51;100.00
46954;BME280;32707;43.886;12.874;2022-11-20T12:36:40;100816.13;;;13.62;100.00
46954;BME280;32707;43.886;12.874;2022-11-20T12:39:42;100817.25;;;13.70;100.00
46954;BME280;32707;43.886;12.874;2022-11-20T12:54:01;100842.22;;;13.41;100.00
46954;BME280;32707;43.886;12.874;2022-11-20T12:57:01;100856.84;;;13.35;100.00
46954;BME280;32707;43.886;12.874;2022-11-20T13:02:52;100864.13;;;13.27;100.00
46954;BME280;32707;43.886;12.874;2022-11-20T13:08:38;100865.31;;;13.56;100.00
46954;BME280;32707;43.886;12.874;2022-11-20T13:17:14;100855.25;;;13.97;100.00
46954;BME280;32707;43.886;12.874;2022-11-20T13:19:32;100846.88;;;13.88;100.00
46954;BME280;32707;43.886;12.874;2022-11-20T13:22:01;100854.88;;;13.77;100.00
46954;BME280;32707;43.886;12.874;2022-11-20T13:24:29;100858.31;;;13.62;100.00
46954;BME280;32707;43.886;12.874;2022-11-20T13:29:35;100856.13;;;13.38;100.00
46954;BME280;32707;43.886;12.874;2022-11-20T13:32:21;100863.47;;;13.21;100.00
46954;BME280;32707;43.886;12.874;2022-11-20T13:34:57;100864.16;;;13.10;100.00
46954;BME280;32707;43.886;12.874;2022-11-20T13:37:36;100877.09;;;13.02;100.00
46954;BME280;32707;43.886;12.874;2022-11-20T13:43:02;100883.03;;;13.00;100.00
46954;BME280;32707;43.886;12.874;2022-11-20T13:45:30;100875.63;;;13.05;100.00
46954;BME280;32707;43.886;12.874;2022-11-20T13:47:59;100873.59;;;13.14;100.00
46954;BME280;32707;43.886;12.874;2022-11-20T13:50:40;100875.88;;;13.20;100.00
46954;BME280;32707;43.886;12.874;2022-11-20T13:56:31;100882.13;;;13.26;100.00
46954;BME280;32707;43.886;12.874;2022-11-20T14:01:51;100887.06;;;13.29;100.00
46954;BME280;32707;43.886;12.874;2022-11-20T14:04:21;100881.78;;;13.28;100.00
46954;BME280;32707;43.886;12.874;2022-11-20T14:06:55;100875.69;;;13.26;100.00
46954;BME280;32707;43.886;12.874;2022-11-20T14:09:26;100878.50;;;13.26;100.00
46954;BME280;32707;43.886;12.874;2022-11-20T14:11:52;100882.44;;;13.25;100.00
46954;BME280;32707;43.886;12.874;2022-11-20T14:14:25;100878.00;;;13.23;100.00
46954;BME280;32707;43.886;12.874;2022-11-20T14:16:52;100879.00;;;13.19;100.00